createdAt,value
2023-03-15T00:00:25.625Z,0.60
2023-03-15T00:05:27.297Z,0.42
2023-03-15T00:10:29.585Z,0.58
2023-03-15T00:15:31.220Z,0.74
2023-03-15T00:20:33.043Z,0.91
2023-03-15T00:25:34.752Z,0.97
2023-03-15T00:30:36.554Z,0.99
2023-03-15T00:35:39.200Z,0.85
2023-03-15T00:40:41.130Z,0.76
2023-03-15T00:45:45.191Z,0.63
2023-03-15T00:50:46.850Z,0.48
2023-03-15T00:55:48.547Z,0.45
2023-03-15T01:00:50.213Z,0.32
2023-03-15T01:05:51.900Z,0.08
2023-03-15T01:10:53.536Z,0.05
2023-03-15T01:15:57.093Z,0.02
2023-03-15T01:20:59.385Z,-0.01
2023-03-15T01:26:05.466Z,-0.12
2023-03-15T01:31:09.424Z,-0.33
2023-03-15T01:36:12.385Z,-0.46
2023-03-15T01:41:14.882Z,-0.54
2023-03-15T01:46:25.131Z,-0.48
2023-03-15T01:51:50.628Z,-0.49
2023-03-15T01:57:06.127Z,-0.44
2023-03-15T02:02:08.495Z,-0.39
2023-03-15T02:07:10.338Z,-0.37
2023-03-15T02:12:14.217Z,-0.36
2023-03-15T02:17:16.328Z,-0.43
2023-03-15T02:22:36.128Z,-0.53
2023-03-15T02:27:39.791Z,-0.68
2023-03-15T02:32:42.629Z,-0.90
2023-03-15T02:37:45.909Z,-1.08
2023-03-15T02:42:51.794Z,-1.24
2023-03-15T02:47:54.023Z,-1.36
2023-03-15T02:52:56.443Z,-1.44
2023-03-15T02:57:58.781Z,-1.28
2023-03-15T03:03:00.479Z,-1.38
2023-03-15T03:08:02.821Z,-1.47
2023-03-15T03:13:04.909Z,-1.44
2023-03-15T03:18:10.208Z,-1.40
2023-03-15T03:23:11.894Z,-1.29
2023-03-15T03:28:13.614Z,-1.33
2023-03-15T03:33:15.431Z,-1.41
2023-03-15T03:38:17.309Z,-1.43
2023-03-15T03:43:30.269Z,-1.14
2023-03-15T03:48:32.660Z,-1.13
2023-03-15T03:53:34.792Z,-1.05
2023-03-15T03:58:37.273Z,-0.97
2023-03-15T04:03:47.101Z,-0.97
2023-03-15T04:08:51.886Z,-1.02
2023-03-15T04:14:15.733Z,-0.86
2023-03-15T04:19:19.833Z,-0.75
2023-03-15T04:24:21.567Z,-0.86
2023-03-15T04:29:58.619Z,-0.83
2023-03-15T04:35:18.560Z,-0.91
2023-03-15T04:40:42.928Z,-0.98
2023-03-15T04:46:02.993Z,-1.07
2023-03-15T04:51:15.197Z,-1.07
2023-03-15T04:56:37.381Z,-1.02
2023-03-15T05:02:04.009Z,-0.91
2023-03-15T05:07:05.798Z,-0.96
2023-03-15T05:12:42.964Z,-0.95
2023-03-15T05:17:56.866Z,-0.98
2023-03-15T05:23:07.563Z,-1.06
2023-03-15T05:28:21.807Z,-1.20
2023-03-15T05:33:47.092Z,-1.22
2023-03-15T05:39:11.878Z,-1.37
2023-03-15T05:44:33.811Z,-1.17
2023-03-15T05:49:55.713Z,-0.98
2023-03-15T05:55:14.820Z,-0.94
2023-03-15T06:00:33.340Z,-0.87
2023-03-15T06:05:41.589Z,-0.81
2023-03-15T06:10:49.092Z,-0.75
2023-03-15T06:15:51.066Z,-0.61
2023-03-15T06:20:54.176Z,-0.35
2023-03-15T06:25:56.056Z,0.10
2023-03-15T06:30:57.951Z,0.46
2023-03-15T06:36:09.036Z,0.62
2023-03-15T06:41:12.492Z,0.71
2023-03-15T06:46:14.949Z,0.83
2023-03-15T06:51:16.667Z,0.91
2023-03-15T06:56:18.299Z,0.91
2023-03-15T07:01:20.044Z,0.95
2023-03-15T07:06:21.718Z,1.02
2023-03-15T07:11:23.364Z,1.15
2023-03-15T07:16:25.778Z,1.41
2023-03-15T07:21:27.842Z,1.83
2023-03-15T07:26:29.437Z,2.04
2023-03-15T07:31:31.109Z,2.15
2023-03-15T07:36:32.822Z,2.00
2023-03-15T07:41:34.475Z,1.63
2023-03-15T07:46:43.417Z,1.20
2023-03-15T07:51:45.071Z,1.38
2023-03-15T07:56:46.668Z,1.35
2023-03-15T08:01:48.311Z,1.40
2023-03-15T08:06:49.936Z,1.54
2023-03-15T08:11:51.565Z,1.43
2023-03-15T08:16:53.218Z,1.20
2023-03-15T08:21:54.850Z,1.07
2023-03-15T08:26:56.685Z,1.21
2023-03-15T08:31:58.460Z,1.39
2023-03-15T08:37:02.371Z,1.75
2023-03-15T08:42:04.370Z,1.68
2023-03-15T08:47:06.230Z,1.49
2023-03-15T08:52:08.081Z,1.11
2023-03-15T08:57:09.753Z,1.00
2023-03-15T09:02:12.613Z,1.01
2023-03-15T09:07:15.721Z,1.33
2023-03-15T09:12:17.922Z,1.49
2023-03-15T09:17:19.594Z,1.91
2023-03-15T09:22:38.433Z,2.25
2023-03-15T09:27:41.278Z,2.22
2023-03-15T09:32:44.173Z,2.40
2023-03-15T09:37:46.974Z,2.14
2023-03-15T09:43:06.917Z,2.06
2023-03-15T09:48:38.086Z,2.28
2023-03-15T09:53:39.640Z,2.51
2023-03-15T09:58:41.554Z,2.89
2023-03-15T10:03:48.344Z,2.95
2023-03-15T10:08:54.741Z,2.90
2023-03-15T10:14:05.418Z,2.92
2023-03-15T10:19:25.595Z,2.99
2023-03-15T10:24:36.245Z,2.86
2023-03-15T10:29:38.741Z,2.92
2023-03-15T10:34:40.924Z,3.15
2023-03-15T10:39:46.831Z,2.48
2023-03-15T10:44:48.468Z,2.58
2023-03-15T10:49:50.819Z,2.95
2023-03-15T10:54:58.802Z,3.60
2023-03-15T11:00:20.884Z,3.65
2023-03-15T11:05:22.492Z,3.91
2023-03-15T11:10:27.083Z,3.50
2023-03-15T11:15:28.717Z,3.44
2023-03-15T11:20:40.853Z,3.36
2023-03-15T11:25:42.533Z,3.43
2023-03-15T11:30:47.296Z,3.45
2023-03-15T11:35:52.945Z,3.06
2023-03-15T11:40:59.432Z,3.50
2023-03-15T11:46:06.040Z,4.12
2023-03-15T11:51:16.028Z,4.10
2023-03-15T11:56:20.951Z,4.11
2023-03-15T12:01:26.843Z,4.32
2023-03-15T12:06:37.554Z,6.67
2023-03-15T12:11:40.938Z,8.99
2023-03-15T12:16:46.171Z,8.73
2023-03-15T12:21:56.035Z,7.09
2023-03-15T12:27:03.349Z,5.12
2023-03-15T12:32:11.848Z,3.74
2023-03-15T12:37:38.611Z,3.16
2023-03-15T12:42:40.164Z,2.47
2023-03-15T12:47:44.743Z,1.40
2023-03-15T12:52:48.201Z,0.82
2023-03-15T12:57:54.128Z,0.47
2023-03-15T13:03:16.766Z,0.57
2023-03-15T13:08:29.834Z,0.90
2023-03-15T13:13:31.382Z,0.99
2023-03-15T13:18:41.787Z,0.86
2023-03-15T13:23:47.175Z,0.63
2023-03-15T13:29:00.979Z,0.81
2023-03-15T13:34:34.156Z,1.88
2023-03-15T13:39:35.809Z,5.60
2023-03-15T13:44:37.406Z,7.09
2023-03-15T13:49:41.660Z,10.77
2023-03-15T13:54:44.484Z,14.13
2023-03-15T14:00:23.266Z,16.05
2023-03-15T14:05:31.673Z,15.62
2023-03-15T14:10:33.297Z,18.58
2023-03-15T14:15:35.597Z,14.14
2023-03-15T14:20:46.030Z,7.95
2023-03-15T14:25:52.735Z,5.52
2023-03-15T14:30:58.438Z,4.76
2023-03-15T14:36:05.050Z,4.49
2023-03-15T14:41:25.905Z,5.00
2023-03-15T14:46:27.775Z,4.50
2023-03-15T14:51:29.926Z,3.96
2023-03-15T14:56:31.862Z,3.75
2023-03-15T15:01:33.512Z,3.76
2023-03-15T15:06:38.054Z,3.64
2023-03-15T15:11:39.708Z,3.33
2023-03-15T15:16:42.677Z,3.31
2023-03-15T15:21:44.471Z,3.04
2023-03-15T15:26:47.159Z,3.12
2023-03-15T15:31:48.867Z,2.80
2023-03-15T15:36:51.965Z,3.20
2023-03-15T15:41:53.979Z,3.59
2023-03-15T15:46:55.645Z,3.20
2023-03-15T15:51:57.255Z,2.90
2023-03-15T15:57:00.678Z,2.78
2023-03-15T16:02:02.930Z,2.77
2023-03-15T16:07:04.987Z,2.76
2023-03-15T16:12:14.058Z,2.47
2023-03-15T16:17:24.129Z,2.43
2023-03-15T16:22:27.127Z,2.39
2023-03-15T16:27:29.747Z,2.36
2023-03-15T16:32:43.390Z,2.24
2023-03-15T16:37:46.420Z,1.86
2023-03-15T16:42:49.383Z,1.64
2023-03-15T16:47:51.365Z,1.47
2023-03-15T16:52:55.494Z,1.33
2023-03-15T16:57:57.333Z,1.18
2023-03-15T17:03:00.087Z,0.84
2023-03-15T17:08:01.866Z,0.55
2023-03-15T17:13:03.550Z,0.37
2023-03-15T17:18:14.018Z,0.20
2023-03-15T17:23:16.603Z,0.19
2023-03-15T17:28:18.315Z,0.06
2023-03-15T17:33:19.990Z,0.05
2023-03-15T17:38:33.713Z,-0.05
2023-03-15T17:43:36.672Z,-0.16
2023-03-15T17:48:38.891Z,-0.16
2023-03-15T17:53:40.574Z,-0.38
2023-03-15T17:58:44.994Z,-0.62
2023-03-15T18:03:49.112Z,-0.77
2023-03-15T18:08:51.204Z,-0.93
2023-03-15T18:13:53.521Z,-0.85
2023-03-15T18:18:55.187Z,-0.90
2023-03-15T18:23:56.869Z,-1.07
2023-03-15T18:28:58.591Z,-1.23
2023-03-15T18:34:01.121Z,-1.43
2023-03-15T18:39:06.076Z,-1.50
2023-03-15T18:44:09.974Z,-1.51
2023-03-15T18:49:11.656Z,-1.63
2023-03-15T18:54:13.395Z,-1.72
2023-03-15T18:59:15.030Z,-1.84
2023-03-15T19:04:16.698Z,-1.54
2023-03-15T19:09:18.543Z,-1.48
2023-03-15T19:14:20.200Z,-1.23
2023-03-15T19:19:21.851Z,-0.97
2023-03-15T19:24:23.572Z,-0.96
2023-03-15T19:29:25.229Z,-1.02
2023-03-15T19:34:29.171Z,-1.12
2023-03-15T19:39:30.904Z,-1.04
2023-03-15T19:44:32.681Z,-1.24
2023-03-15T19:49:34.719Z,-1.39
2023-03-15T19:54:36.443Z,-1.34
2023-03-15T19:59:40.937Z,-1.46
2023-03-15T20:04:42.701Z,-1.77
2023-03-15T20:09:44.367Z,-2.05
2023-03-15T20:14:46.039Z,-2.24
2023-03-15T20:19:47.684Z,-2.38
2023-03-15T20:24:50.079Z,-2.43
2023-03-15T20:29:51.949Z,-2.41
2023-03-15T20:34:57.190Z,-2.38
2023-03-15T20:39:58.831Z,-2.50
2023-03-15T20:45:00.808Z,-2.62
2023-03-15T20:50:03.147Z,-2.74
2023-03-15T20:55:06.097Z,-2.78
2023-03-15T21:00:12.565Z,-2.78
2023-03-15T21:05:16.176Z,-2.76
2023-03-15T21:10:17.820Z,-2.87
2023-03-15T21:15:20.035Z,-3.06
2023-03-15T21:20:21.904Z,-3.03
2023-03-15T21:25:26.123Z,-3.05
2023-03-15T21:30:27.991Z,-3.07
2023-03-15T21:35:29.698Z,-3.10
2023-03-15T21:40:31.346Z,-3.15
2023-03-15T21:45:33.133Z,-3.15
2023-03-15T21:50:35.539Z,-3.14
2023-03-15T21:55:37.442Z,-3.21
2023-03-15T22:00:39.123Z,-3.24
2023-03-15T22:05:40.795Z,-3.26
2023-03-15T22:10:42.459Z,-3.08
2023-03-15T22:15:44.275Z,-2.87
2023-03-15T22:20:51.101Z,-2.58
2023-03-15T22:25:53.697Z,-2.53
2023-03-15T22:30:55.403Z,-2.71
2023-03-15T22:35:58.265Z,-2.81
2023-03-15T22:41:02.731Z,-2.82
2023-03-15T22:46:04.704Z,-2.98
2023-03-15T22:51:09.619Z,-3.07
2023-03-15T22:56:11.504Z,-3.04
2023-03-15T23:01:13.200Z,-3.20
2023-03-15T23:06:15.165Z,-3.29
2023-03-15T23:11:16.882Z,-3.34
2023-03-15T23:16:19.102Z,-3.44
2023-03-15T23:21:20.965Z,-3.45
2023-03-15T23:26:25.319Z,-3.39
2023-03-15T23:31:26.975Z,-3.32
2023-03-15T23:36:28.620Z,-3.41
2023-03-15T23:41:30.257Z,-3.52
2023-03-15T23:46:36.086Z,-3.54
2023-03-15T23:51:38.322Z,-3.08
2023-03-15T23:56:40.382Z,-2.91
